Time;durP1;ratioP1;P1;durP2;ratioP2;P2;SDS_P1;SDS_P2;PMS_P1;PMS_P2;Temp;Humidity;BMP_temperature;BMP_pressure;BME280_temperature;BME280_humidity;BME280_pressure;Samples;Min_cycle;Max_cycle;Signal;HPM_P1;HPM_P2
2021/12/26 00:02:15;;;;;;;385.75;188.73;;;;;;;11.70;100.00;98961.03;4808908;29;20058;-68
2021/12/26 00:04:57;;;;;;;391.13;189.23;;;;;;;11.85;100.00;98954.56;4824500;29;20054;-68
2021/12/26 00:07:45;;;;;;;397.75;193.85;;;;;;;11.98;100.00;98937.81;4805839;29;20069;-68
2021/12/26 00:10:29;;;;;;;383.50;190.50;;;;;;;11.89;100.00;98930.38;4821882;29;20062;-68
2021/12/26 00:13:16;;;;;;;404.55;194.57;;;;;;;11.82;100.00;98945.19;4806569;29;20054;-68
2021/12/26 00:15:59;;;;;;;405.17;197.13;;;;;;;11.84;100.00;98938.25;4821268;29;20039;-68
2021/12/26 00:18:48;;;;;;;376.13;189.13;;;;;;;11.84;100.00;98929.66;4817606;29;20394;-69
2021/12/26 00:21:45;;;;;;;387.60;187.63;;;;;;;11.86;100.00;98931.31;4820931;29;20054;-68
2021/12/26 00:24:21;;;;;;;363.20;178.23;;;;;;;11.79;100.00;98947.88;4809975;29;20138;-68
2021/12/26 00:27:09;;;;;;;363.52;180.65;;;;;;;11.71;100.00;98949.81;4809234;29;20050;-68
2021/12/26 00:29:52;;;;;;;359.33;174.75;;;;;;;11.69;100.00;98964.50;4810546;29;20062;-68
2021/12/26 00:32:42;;;;;;;374.27;179.52;;;;;;;11.84;100.00;98989.88;4820780;29;20075;-68
2021/12/26 00:35:26;;;;;;;366.85;184.40;;;;;;;11.68;100.00;99019.56;4806825;29;20130;-68
2021/12/26 00:38:16;;;;;;;379.85;184.65;;;;;;;11.69;100.00;99041.91;4810029;29;20046;-68
2021/12/26 00:40:57;;;;;;;360.95;174.73;;;;;;;11.67;100.00;99043.69;4822221;29;20046;-68
2021/12/26 00:43:46;;;;;;;355.05;169.45;;;;;;;11.83;100.00;99039.78;4802185;29;20051;-69
2021/12/26 00:46:28;;;;;;;352.10;169.30;;;;;;;12.12;100.00;99033.78;4808909;29;20438;-68
2021/12/26 00:49:17;;;;;;;345.10;167.55;;;;;;;12.15;100.00;99045.72;4807306;29;20842;-68
2021/12/26 00:51:59;;;;;;;345.33;164.27;;;;;;;12.16;100.00;99057.75;4826132;29;20039;-68
2021/12/26 00:54:55;;;;;;;335.55;168.88;;;;;;;12.21;100.00;99055.91;4823465;29;20527;-68
2021/12/26 00:57:43;;;;;;;353.63;168.00;;;;;;;12.13;100.00;99068.19;4802841;29;20065;-69
2021/12/26 01:00:44;;;;;;;336.90;163.50;;;;;;;12.23;100.00;99069.59;4804690;29;20130;-69
2021/12/26 01:03:20;;;;;;;342.42;164.20;;;;;;;12.19;100.00;99071.44;4814536;29;20061;-68
2021/12/26 01:06:10;;;;;;;;;;;;;;;12.19;100.00;99079.19;4817393;29;20542;-67
2021/12/26 01:08:52;;;;;;;344.50;161.55;;;;;;;12.31;100.00;99079.69;4824368;29;19932;-68
2021/12/26 01:11:47;;;;;;;336.23;160.73;;;;;;;12.58;100.00;99086.59;4803960;29;20122;-67
2021/12/26 01:14:45;;;;;;;352.25;169.15;;;;;;;12.48;100.00;99086.03;4813943;29;20061;-68
2021/12/26 01:17:44;;;;;;;342.27;165.23;;;;;;;12.59;100.00;99093.47;4783818;29;20053;-69
2021/12/26 01:21:19;;;;;;;350.20;164.18;;;;;;;12.43;100.00;99093.09;4814007;29;20057;-69
2021/12/26 01:23:49;;;;;;;338.05;160.63;;;;;;;12.48;100.00;99100.69;4783380;29;20043;-69
2021/12/26 01:26:34;;;;;;;326.45;161.23;;;;;;;12.58;100.00;99113.28;4801401;29;20497;-68
2021/12/26 01:29:34;;;;;;;341.55;161.80;;;;;;;12.61;100.00;99126.09;4832317;29;20597;-69
2021/12/26 01:32:17;;;;;;;331.15;163.82;;;;;;;12.54;100.00;99129.75;4784599;29;20567;-68
2021/12/26 01:35:33;;;;;;;356.85;175.95;;;;;;;12.61;100.00;99138.19;4816003;29;20165;-68
2021/12/26 01:38:58;;;;;;;379.55;194.80;;;;;;;12.69;100.00;99140.56;4809519;29;20101;-68
2021/12/26 01:42:02;;;;;;;389.88;197.93;;;;;;;12.86;100.00;99153.75;4817420;29;20730;-68
2021/12/26 01:45:12;;;;;;;402.35;199.20;;;;;;;12.85;100.00;99155.50;4813022;29;20059;-68
2021/12/26 01:48:12;;;;;;;409.10;204.07;;;;;;;12.83;100.00;99144.38;4816017;29;20552;-68
2021/12/26 01:51:01;;;;;;;392.35;204.52;;;;;;;12.83;100.00;99153.88;4831847;29;20120;-68
2021/12/26 01:53:52;;;;;;;464.02;235.90;;;;;;;12.78;100.00;99156.59;4800860;29;20059;-67
2021/12/26 01:56:49;;;;;;;493.13;252.43;;;;;;;12.72;100.00;99150.78;4782084;29;20071;-68
2021/12/26 01:59:40;;;;;;;548.85;286.33;;;;;;;12.67;100.00;99142.31;4814387;29;20462;-68
2021/12/26 02:02:34;;;;;;;564.75;296.55;;;;;;;12.63;100.00;99137.25;4818620;29;20054;-68
2021/12/26 02:05:18;;;;;;;551.85;293.15;;;;;;;12.74;100.00;99133.50;4815544;29;20509;-68
2021/12/26 02:08:12;;;;;;;565.30;301.63;;;;;;;12.74;100.00;99136.91;4799338;29;20054;-68
2021/12/26 02:11:02;;;;;;;570.40;306.33;;;;;;;12.67;100.00;99132.84;4831581;29;20094;-68
2021/12/26 02:13:51;;;;;;;566.15;302.58;;;;;;;12.81;100.00;99134.97;4808877;29;20063;-68
2021/12/26 02:17:01;;;;;;;573.60;303.58;;;;;;;12.81;100.00;99129.81;4798249;29;20058;-68
2021/12/26 02:19:54;;;;;;;578.55;303.30;;;;;;;12.65;100.00;99147.53;4805123;29;20061;-68
2021/12/26 02:22:39;;;;;;;587.17;310.17;;;;;;;12.61;100.00;99149.34;4831592;29;20065;-68
2021/12/26 02:27:30;;;;;;;581.78;308.52;;;;;;;12.61;100.00;99136.44;4826104;29;20061;-69
2021/12/26 02:28:39;;;;;;;572.35;303.00;;;;;;;12.56;100.00;99147.81;4814451;29;20057;-69
2021/12/26 02:31:29;;;;;;;579.75;305.50;;;;;;;12.52;100.00;99154.00;4821034;29;20070;-69
2021/12/26 02:34:11;;;;;;;576.65;303.48;;;;;;;12.53;100.00;99156.50;4820646;29;20082;-68
2021/12/26 02:37:01;;;;;;;573.15;301.65;;;;;;;12.53;100.00;99150.50;4803892;29;20065;-68
2021/12/26 02:39:42;;;;;;;555.85;292.67;;;;;;;12.63;100.00;99167.41;4806404;29;20054;-68
2021/12/26 02:42:31;;;;;;;579.85;300.52;;;;;;;12.92;100.00;99167.38;4820026;29;20054;-67
2021/12/26 02:45:14;;;;;;;560.60;292.13;;;;;;;12.94;100.00;99175.06;4804274;29;20069;-68
2021/12/26 02:48:03;;;;;;;565.45;291.45;;;;;;;12.93;100.00;99175.97;4806687;29;20047;-68
2021/12/26 02:50:52;;;;;;;;;;;;;;;12.73;100.00;99167.97;4821000;29;20051;-68
2021/12/26 02:53:41;;;;;;;550.33;283.77;;;;;;;12.73;100.00;99157.63;4822243;29;19990;-68
2021/12/26 02:56:30;;;;;;;548.03;287.38;;;;;;;12.59;100.00;99171.84;4810086;29;20066;-67
2021/12/26 02:59:19;;;;;;;548.00;283.30;;;;;;;12.50;100.00;99171.28;4820697;29;20078;-67
2021/12/26 03:02:09;;;;;;;544.08;281.67;;;;;;;12.62;100.00;99171.72;4819778;29;20046;-68
2021/12/26 03:04:51;;;;;;;542.03;286.27;;;;;;;12.96;100.00;99181.88;4809960;29;20058;-67
2021/12/26 03:07:40;;;;;;;536.92;280.10;;;;;;;13.00;100.00;99182.66;4811837;29;20134;-67
2021/12/26 03:10:30;;;;;;;522.88;275.83;;;;;;;13.03;100.00;99172.19;4821419;29;20050;-68
2021/12/26 03:13:20;;;;;;;519.47;280.17;;;;;;;13.10;100.00;99176.25;4826724;29;20042;-69
2021/12/26 03:16:01;;;;;;;534.53;287.83;;;;;;;13.09;100.00;99171.97;4810530;29;20050;-69
2021/12/26 03:18:59;;;;;;;543.03;284.08;;;;;;;13.02;100.00;99176.50;4807668;29;20087;-69
2021/12/26 03:21:41;;;;;;;536.38;277.73;;;;;;;12.87;100.00;99176.16;4808539;29;20558;-68
2021/12/26 03:24:32;;;;;;;527.95;279.55;;;;;;;12.86;100.00;99195.13;4813690;29;20545;-70
2021/12/26 03:27:13;;;;;;;526.67;274.88;;;;;;;12.90;100.00;99196.75;4833774;29;20522;-67
2021/12/26 03:30:05;;;;;;;520.88;270.95;;;;;;;12.95;100.00;99200.88;4834782;29;20134;-67
2021/12/26 03:32:47;;;;;;;521.67;272.73;;;;;;;12.93;100.00;99225.94;4821118;29;20070;-67
2021/12/26 03:35:37;;;;;;;531.30;281.35;;;;;;;13.00;100.00;99234.38;4821066;29;20150;-67
2021/12/26 03:38:21;;;;;;;526.80;278.15;;;;;;;13.09;100.00;99241.00;4809866;29;20106;-68
2021/12/26 03:41:30;;;;;;;533.58;276.33;;;;;;;13.21;100.00;99230.28;4810671;29;20048;-68
2021/12/26 03:44:13;;;;;;;524.25;273.60;;;;;;;13.08;100.00;99223.78;4822784;29;20104;-67
2021/12/26 03:47:03;;;;;;;483.30;252.20;;;;;;;13.17;100.00;99221.75;4821515;29;20053;-68
2021/12/26 03:49:44;;;;;;;491.10;251.88;;;;;;;13.14;100.00;99237.41;4818767;29;20141;-68
2021/12/26 03:52:34;;;;;;;494.08;255.05;;;;;;;13.10;100.00;99251.28;4813429;29;20058;-67
2021/12/26 03:55:25;;;;;;;494.25;252.10;;;;;;;13.08;100.00;99253.09;4800702;29;20498;-68
2021/12/26 03:58:09;;;;;;;512.13;262.55;;;;;;;13.06;100.00;99260.03;4802338;29;20051;-68
2021/12/26 04:00:58;;;;;;;512.38;260.40;;;;;;;13.00;100.00;99266.25;4804349;29;20690;-68
2021/12/26 04:03:40;;;;;;;511.85;263.25;;;;;;;13.12;100.00;99275.38;4798946;29;20047;-68
2021/12/26 04:06:30;;;;;;;527.50;274.35;;;;;;;13.18;100.00;99280.38;4818278;29;20070;-68
2021/12/26 04:09:19;;;;;;;523.08;271.65;;;;;;;13.15;100.00;99282.22;4819346;29;20048;-68
2021/12/26 04:12:02;;;;;;;541.03;281.07;;;;;;;13.14;100.00;99278.78;4800883;29;20073;-68
2021/12/26 04:14:51;;;;;;;549.78;282.10;;;;;;;13.14;100.00;99289.13;4800886;29;20055;-68
2021/12/26 04:17:40;;;;;;;535.40;282.73;;;;;;;13.52;100.00;99289.66;4808663;29;20446;-67
2021/12/26 04:20:22;;;;;;;552.20;289.55;;;;;;;13.60;100.00;99290.25;4812782;29;20065;-66
2021/12/26 04:23:14;;;;;;;536.40;285.95;;;;;;;13.62;100.00;99281.56;4806347;29;20065;-67
2021/12/26 04:26:05;;;;;;;525.53;269.48;;;;;;;13.70;100.00;99278.72;4826109;29;20137;-67
2021/12/26 04:28:56;;;;;;;524.83;272.20;;;;;;;13.65;100.00;99285.78;4809166;29;20116;-67
2021/12/26 04:31:38;;;;;;;512.58;264.77;;;;;;;13.67;100.00;99295.19;4804018;29;20063;-67
2021/12/26 04:34:28;;;;;;;497.05;259.65;;;;;;;13.70;100.00;99307.19;4821305;29;20062;-67
2021/12/26 04:37:10;;;;;;;487.00;256.40;;;;;;;13.77;100.00;99312.13;4816826;29;20047;-67
2021/12/26 04:39:59;;;;;;;507.08;260.83;;;;;;;13.79;100.00;99317.25;4824193;29;20054;-66
2021/12/26 04:43:08;;;;;;;500.38;257.15;;;;;;;13.91;100.00;99323.78;4782870;29;20053;-67
2021/12/26 04:46:15;;;;;;;487.20;251.85;;;;;;;13.91;100.00;99323.78;4817467;29;20039;-67
2021/12/26 04:49:12;;;;;;;503.23;256.80;;;;;;;13.72;100.00;99333.91;4799985;29;20046;-66
2021/12/26 04:52:02;;;;;;;491.98;252.90;;;;;;;13.77;100.00;99339.78;4817657;29;20735;-66
2021/12/26 04:55:01;;;;;;;484.25;252.02;;;;;;;13.96;100.00;99343.47;4827820;29;20476;-66
2021/12/26 04:57:44;;;;;;;478.63;247.07;;;;;;;13.91;100.00;99344.50;4809314;29;20061;-66
2021/12/26 05:00:36;;;;;;;491.90;254.10;;;;;;;13.99;100.00;99337.31;4819411;29;20064;-66
2021/12/26 05:03:19;;;;;;;505.88;261.60;;;;;;;13.96;100.00;99333.09;4823214;29;20832;-66
2021/12/26 05:06:08;;;;;;;503.42;259.27;;;;;;;13.96;100.00;99327.06;4821222;29;20069;-67
2021/12/26 05:08:57;;;;;;;487.25;255.00;;;;;;;14.02;100.00;99326.88;4812220;29;20054;-66
2021/12/26 05:11:40;;;;;;;499.37;259.00;;;;;;;14.01;100.00;99331.19;4815654;29;20062;-66
2021/12/26 05:14:29;;;;;;;488.25;254.23;;;;;;;13.81;100.00;99343.13;4810531;29;21048;-65
2021/12/26 05:17:11;;;;;;;490.02;259.15;;;;;;;13.88;100.00;99342.88;4816725;29;20385;-67
2021/12/26 05:20:01;;;;;;;501.65;261.35;;;;;;;14.14;100.00;99327.28;4820008;29;20165;-66
2021/12/26 05:22:52;;;;;;;515.75;265.42;;;;;;;14.14;100.00;99319.50;4801054;29;20061;-67
2021/12/26 05:25:38;;;;;;;526.60;273.20;;;;;;;13.90;100.00;99312.56;4803188;29;20118;-64
2021/12/26 05:28:28;;;;;;;533.80;281.23;;;;;;;14.14;100.00;99311.72;4803755;29;20764;-66
2021/12/26 05:31:12;;;;;;;531.75;279.88;;;;;;;14.28;100.00;99313.03;4802120;29;20054;-66
2021/12/26 05:34:01;;;;;;;534.90;279.90;;;;;;;14.32;100.00;99304.22;4822274;29;20062;-66
2021/12/26 05:36:43;;;;;;;537.40;281.70;;;;;;;14.48;100.00;99305.41;4823872;29;20640;-67
2021/12/26 05:39:33;;;;;;;520.67;273.90;;;;;;;14.42;100.00;99300.44;4805442;29;20073;-68
2021/12/26 05:42:16;;;;;;;528.42;278.38;;;;;;;14.51;100.00;99290.59;4819755;29;20078;-66
2021/12/26 05:45:05;;;;;;;523.17;273.77;;;;;;;14.57;100.00;99284.34;4825217;29;20053;-65
2021/12/26 05:48:15;;;;;;;518.92;269.50;;;;;;;14.47;100.00;99285.56;4805798;29;20482;-65
2021/12/26 05:50:57;;;;;;;526.95;280.75;;;;;;;14.43;100.00;99284.00;4810196;29;20054;-65
2021/12/26 05:53:49;;;;;;;550.28;287.90;;;;;;;14.54;100.00;99284.44;4822845;29;20137;-64
2021/12/26 05:56:44;;;;;;;539.47;285.85;;;;;;;14.73;100.00;99290.66;4816888;29;20556;-65
2021/12/26 05:59:34;;;;;;;552.88;293.20;;;;;;;14.82;100.00;99295.50;4812938;29;20063;-64
2021/12/26 06:02:23;;;;;;;564.90;296.00;;;;;;;14.96;100.00;99300.16;4802364;29;20054;-63
2021/12/26 06:05:06;;;;;;;556.80;293.83;;;;;;;15.00;100.00;99303.50;4815155;29;20054;-64
2021/12/26 06:07:55;;;;;;;559.35;294.30;;;;;;;15.18;100.00;99302.78;4815867;29;20061;-63
2021/12/26 06:10:41;;;;;;;550.50;295.35;;;;;;;15.31;100.00;99299.66;4815967;29;20055;-63
2021/12/26 06:13:31;;;;;;;565.92;294.42;;;;;;;15.11;100.00;99307.34;4808265;29;20090;-66
2021/12/26 06:16:23;;;;;;;590.39;309.14;;;;;;;15.19;100.00;99307.91;4465388;29;10001092;-63
2021/12/26 06:19:19;;;;;;;592.17;310.30;;;;;;;14.91;100.00;99309.88;4803830;29;20267;-64
2021/12/26 06:22:19;;;;;;;595.55;315.80;;;;;;;15.09;100.00;99295.34;4798292;29;20577;-65
2021/12/26 06:25:44;;;;;;;627.47;325.80;;;;;;;14.91;100.00;99297.75;4791550;29;20820;-64
2021/12/26 06:28:33;;;;;;;602.58;326.30;;;;;;;14.81;100.00;99293.81;4811155;29;20062;-66
2021/12/26 06:31:54;;;;;;;649.80;343.05;;;;;;;14.52;100.00;99301.81;4787252;29;20533;-65
2021/12/26 06:35:01;;;;;;;646.00;337.35;;;;;;;14.58;100.00;99293.81;4795676;29;21378;-63
2021/12/26 06:38:09;;;;;;;647.42;329.33;;;;;;;14.57;100.00;99278.31;4736102;29;21740;-66
2021/12/26 06:41:26;;;;;;;626.50;318.17;;;;;;;14.44;100.00;99273.56;4796260;29;20055;-63
2021/12/26 06:44:54;;;;;;;624.90;308.48;;;;;;;14.47;100.00;99272.59;4776361;29;20051;-63
2021/12/26 06:48:02;;;;;;;641.72;310.17;;;;;;;14.56;100.00;99277.44;4776002;29;20071;-64
2021/12/26 06:50:52;;;;;;;633.10;312.13;;;;;;;14.58;100.00;99290.38;4777670;29;20054;-64
2021/12/26 06:53:34;;;;;;;651.67;313.40;;;;;;;14.48;100.00;99287.25;4774208;29;20069;-64
2021/12/26 06:56:24;;;;;;;638.80;304.45;;;;;;;14.67;100.00;99288.28;4791269;29;20059;-65
2021/12/26 06:59:08;;;;;;;625.80;303.67;;;;;;;14.74;100.00;99276.78;4796367;29;20101;-65
2021/12/26 07:02:00;;;;;;;644.13;311.98;;;;;;;14.72;100.00;99277.75;4790894;29;20142;-64
2021/12/26 07:04:54;;;;;;;638.08;306.67;;;;;;;14.55;100.00;99275.75;4786783;29;20055;-63
2021/12/26 07:07:52;;;;;;;640.45;308.60;;;;;;;14.66;100.00;99265.00;4784740;29;20065;-63
2021/12/26 07:10:34;;;;;;;630.83;307.95;;;;;;;14.72;100.00;99268.22;4786640;29;20062;-64
2021/12/26 07:13:23;;;;;;;633.58;303.95;;;;;;;14.80;100.00;99273.94;4803598;29;20063;-64
2021/12/26 07:16:12;;;;;;;620.78;304.50;;;;;;;14.85;100.00;99272.03;4783733;29;20055;-64
2021/12/26 07:18:55;;;;;;;616.35;304.55;;;;;;;14.83;100.00;99267.81;4785536;29;20051;-64
2021/12/26 07:21:53;;;;;;;610.95;298.73;;;;;;;14.90;100.00;99251.97;4790772;29;20058;-64
2021/12/26 07:24:29;;;;;;;620.13;304.75;;;;;;;14.91;100.00;99258.00;4792456;29;20063;-64
2021/12/26 07:27:18;;;;;;;623.42;307.10;;;;;;;14.80;100.00;99260.97;4782850;29;20121;-64
2021/12/26 07:30:25;;;;;;;638.28;313.23;;;;;;;14.87;100.00;99256.41;4798737;29;20055;-65
2021/12/26 07:33:07;;;;;;;641.70;313.17;;;;;;;14.91;100.00;99252.81;4804933;29;20579;-66
2021/12/26 07:36:01;;;;;;;619.80;306.65;;;;;;;14.75;100.00;99252.53;4798719;29;20497;-65
2021/12/26 07:39:06;;;;;;;639.28;316.85;;;;;;;14.87;100.00;99244.28;4787599;29;20051;-66
2021/12/26 07:41:54;;;;;;;642.55;315.30;;;;;;;14.69;100.00;99257.09;4791678;29;20055;-66
2021/12/26 07:45:05;;;;;;;635.40;315.10;;;;;;;14.89;100.00;99254.59;4786624;29;20062;-65
2021/12/26 07:47:58;;;;;;;646.40;323.73;;;;;;;14.61;100.00;99247.00;4790934;29;20059;-65
2021/12/26 07:50:40;;;;;;;672.83;330.00;;;;;;;14.50;100.00;99251.75;4787269;29;20074;-66
2021/12/26 07:53:50;;;;;;;656.05;329.95;;;;;;;14.61;100.00;99239.22;4785371;29;20230;-66
2021/12/26 07:56:51;;;;;;;666.92;331.05;;;;;;;14.63;100.00;99239.19;4791235;29;20676;-66
2021/12/26 08:00:04;;;;;;;670.92;338.08;;;;;;;14.77;100.00;99234.31;4769540;29;20189;-66
2021/12/26 08:03:03;;;;;;;668.53;338.30;;;;;;;14.74;100.00;99227.50;4771904;29;20063;-65
2021/12/26 08:06:02;;;;;;;682.83;336.08;;;;;;;14.79;100.00;99224.72;4768653;29;20476;-66
2021/12/26 08:08:55;;;;;;;672.03;340.27;;;;;;;14.81;100.00;99218.59;4771634;29;20661;-65
2021/12/26 08:11:37;;;;;;;678.05;337.00;;;;;;;14.81;100.00;99210.81;4771430;30;20058;-66
2021/12/26 08:14:26;;;;;;;673.25;341.58;;;;;;;14.74;100.00;99214.53;4773789;29;20610;-66
2021/12/26 08:17:08;;;;;;;665.70;343.13;;;;;;;14.70;100.00;99220.72;4771288;29;20047;-66
2021/12/26 08:20:05;;;;;;;683.40;344.13;;;;;;;14.60;100.00;99205.59;4773664;29;20058;-66
2021/12/26 08:22:41;;;;;;;701.53;348.35;;;;;;;14.53;100.00;99204.97;4768595;29;20051;-66
2021/12/26 08:25:29;;;;;;;670.50;344.65;;;;;;;14.48;100.00;99199.97;4770057;29;20067;-66
2021/12/26 08:28:19;;;;;;;678.22;342.10;;;;;;;14.68;100.00;99199.22;4780399;29;20120;-64
2021/12/26 08:31:10;;;;;;;686.65;342.95;;;;;;;14.63;100.00;99198.53;4768545;29;20540;-67
2021/12/26 08:33:59;;;;;;;691.75;343.48;;;;;;;14.53;100.00;99184.22;4782907;29;20059;-68
2021/12/26 08:36:40;;;;;;;681.70;343.77;;;;;;;14.57;100.00;99185.81;4782296;29;20067;-67
2021/12/26 08:39:30;;;;;;;703.47;344.52;;;;;;;14.58;100.00;99184.91;4771673;29;20058;-67
2021/12/26 08:42:19;;;;;;;679.58;344.10;;;;;;;14.62;100.00;99183.88;4777166;29;20412;-67
2021/12/26 08:45:08;;;;;;;673.08;337.25;;;;;;;14.64;100.00;99178.63;4750395;29;20051;-66
2021/12/26 08:47:55;;;;;;;669.13;334.50;;;;;;;14.72;100.00;99176.59;4768634;29;20051;-67
2021/12/26 08:50:43;;;;;;;662.92;326.00;;;;;;;14.76;100.00;99173.84;4777261;29;20059;-68
2021/12/26 08:53:26;;;;;;;651.10;321.30;;;;;;;14.67;100.00;99174.19;4764916;30;20075;-66
2021/12/26 08:56:14;;;;;;;647.40;318.67;;;;;;;14.56;100.00;99173.75;4764327;29;20055;-68
2021/12/26 08:59:09;;;;;;;637.88;315.45;;;;;;;14.45;100.00;99175.88;4779933;29;20047;-68
2021/12/26 09:02:02;;;;;;;637.58;312.05;;;;;;;14.47;100.00;99171.50;4798188;29;20042;-68
2021/12/26 09:04:52;;;;;;;625.80;304.60;;;;;;;14.66;100.00;99163.88;4782379;29;20167;-66
2021/12/26 09:07:34;;;;;;;651.40;309.38;;;;;;;14.54;100.00;99162.56;4791855;29;20054;-68
2021/12/26 09:10:24;;;;;;;613.08;301.23;;;;;;;14.67;100.00;99166.41;4791655;29;20092;-67
2021/12/26 09:13:06;;;;;;;632.78;307.85;;;;;;;14.77;100.00;99162.53;4785421;29;20476;-67
2021/12/26 09:15:55;;;;;;;626.95;305.30;;;;;;;14.85;100.00;99165.66;4794376;29;20487;-69
2021/12/26 09:18:39;;;;;;;632.93;306.73;;;;;;;14.99;100.00;99161.69;4781609;29;20066;-69
2021/12/26 09:21:28;;;;;;;628.05;299.20;;;;;;;14.92;100.00;99163.69;4791368;29;20294;-65
2021/12/26 09:24:11;;;;;;;618.80;302.52;;;;;;;14.79;100.00;99168.50;4785986;29;20149;-68
2021/12/26 09:27:01;;;;;;;621.42;298.17;;;;;;;14.84;100.00;99169.19;4793812;29;20051;-67
2021/12/26 09:29:43;;;;;;;610.47;304.73;;;;;;;14.70;100.00;99161.09;4797703;29;20054;-67
2021/12/26 09:32:36;;;;;;;619.87;302.97;;;;;;;14.66;100.00;99163.88;4793762;29;20051;-65
2021/12/26 09:35:33;;;;;;;611.40;305.48;;;;;;;14.53;100.00;99158.28;4796291;29;20050;-71
2021/12/26 09:38:09;;;;;;;621.58;306.67;;;;;;;14.57;100.00;99153.84;4806510;29;20050;-69
2021/12/26 09:40:59;;;;;;;613.75;307.33;;;;;;;14.51;100.00;99154.94;4794416;29;20058;-70
2021/12/26 09:43:41;;;;;;;591.08;298.75;;;;;;;14.59;100.00;99147.72;4787755;29;20123;-69
2021/12/26 09:46:32;;;;;;;562.67;282.40;;;;;;;14.57;100.00;99149.50;4791764;29;20051;-64
2021/12/26 09:49:15;;;;;;;548.97;275.80;;;;;;;14.57;100.00;99152.09;4793073;29;20051;-65
2021/12/26 09:52:05;;;;;;;541.65;273.88;;;;;;;14.60;100.00;99153.75;4801859;29;20074;-65
2021/12/26 09:54:54;;;;;;;523.58;261.23;;;;;;;14.53;100.00;99158.28;4788540;29;20047;-66
2021/12/26 09:57:36;;;;;;;457.65;228.48;;;;;;;14.51;100.00;99148.00;4797176;29;20051;-67
2021/12/26 10:00:36;;;;;;;435.35;214.27;;;;;;;14.64;100.00;99150.97;4789457;29;20511;-67
2021/12/26 10:03:38;;;;;;;385.90;195.85;;;;;;;14.59;100.00;99152.91;4789437;29;20104;-67
2021/12/26 10:06:20;;;;;;;391.83;194.63;;;;;;;14.67;100.00;99156.03;4797079;29;20054;-66
2021/12/26 10:09:10;;;;;;;370.42;186.25;;;;;;;14.66;100.00;99154.34;4783875;29;20547;-67
2021/12/26 10:11:55;;;;;;;379.08;187.38;;;;;;;14.66;100.00;99154.34;4780778;29;20076;-64
2021/12/26 10:14:49;;;;;;;377.00;183.52;;;;;;;14.66;100.00;99159.53;4781079;29;20055;-65
2021/12/26 10:17:32;;;;;;;372.73;181.13;;;;;;;14.68;100.00;99160.31;4765274;30;20132;-65
2021/12/26 10:20:33;;;;;;;376.33;180.95;;;;;;;14.63;100.00;99158.78;4800380;29;20047;-66
2021/12/26 10:23:34;;;;;;;375.52;184.20;;;;;;;14.60;100.00;99164.97;4789393;29;20054;-66
2021/12/26 10:26:28;;;;;;;359.13;181.73;;;;;;;14.58;100.00;99169.34;4792732;29;20115;-64
2021/12/26 10:29:27;;;;;;;337.80;173.70;;;;;;;14.61;100.00;99166.63;4791513;29;20574;-66
2021/12/26 10:32:12;;;;;;;348.10;178.70;;;;;;;14.69;100.00;99164.56;4785997;29;20089;-68
2021/12/26 10:35:02;;;;;;;357.73;179.23;;;;;;;14.72;100.00;99158.44;4794760;29;20396;-70
2021/12/26 10:37:53;;;;;;;356.42;175.13;;;;;;;14.76;100.00;99150.50;4787500;29;20078;-70
2021/12/26 10:40:37;;;;;;;352.92;176.85;;;;;;;14.68;100.00;99152.53;4785107;29;20583;-70
2021/12/26 10:43:50;;;;;;;347.80;174.38;;;;;;;14.67;100.00;99148.25;4788461;29;20061;-70
2021/12/26 10:46:26;;;;;;;342.80;172.88;;;;;;;14.79;100.00;99160.72;4788799;29;20055;-70
2021/12/26 10:49:55;;;;;;;351.75;171.43;;;;;;;14.85;100.00;99165.66;4794947;29;20054;-70
2021/12/26 10:52:40;;;;;;;355.05;173.10;;;;;;;14.87;100.00;99171.66;4789377;29;20154;-70
2021/12/26 10:55:33;;;;;;;357.10;175.25;;;;;;;14.89;100.00;99169.84;4790398;29;20137;-71
2021/12/26 10:58:24;;;;;;;336.25;168.27;;;;;;;14.82;100.00;99175.34;4803929;29;21517;-70
2021/12/26 11:01:05;;;;;;;341.33;169.05;;;;;;;14.75;100.00;99179.06;4801170;29;20142;-71
2021/12/26 11:03:54;;;;;;;341.50;174.25;;;;;;;14.75;100.00;99174.75;4785842;29;20480;-71
2021/12/26 11:06:58;;;;;;;340.42;169.88;;;;;;;14.87;100.00;99183.78;4786491;29;20063;-71
2021/12/26 11:09:50;;;;;;;330.60;167.32;;;;;;;14.82;100.00;99175.34;4790720;29;20059;-71
2021/12/26 11:13:01;;;;;;;323.88;170.82;;;;;;;14.67;100.00;99184.56;4788509;29;20055;-71
2021/12/26 11:15:46;;;;;;;336.58;170.07;;;;;;;14.59;100.00;99184.00;4789677;29;20764;-71
2021/12/26 11:18:39;;;;;;;324.98;161.82;;;;;;;14.57;100.00;99179.78;4792229;29;20063;-71
2021/12/26 11:21:34;;;;;;;316.77;153.67;;;;;;;14.54;100.00;99183.31;4788701;29;22540;-69
2021/12/26 11:24:23;;;;;;;307.85;158.18;;;;;;;14.56;100.00;99184.13;4785787;29;20138;-69
2021/12/26 11:27:05;;;;;;;305.90;155.38;;;;;;;14.64;100.00;99182.06;4801211;29;20047;-69
2021/12/26 11:30:02;;;;;;;299.95;153.65;;;;;;;14.59;100.00;99189.19;4800474;29;20054;-69
2021/12/26 11:32:38;;;;;;;302.33;154.00;;;;;;;14.69;100.00;99180.13;4795967;29;20070;-70
2021/12/26 11:35:30;;;;;;;309.05;161.80;;;;;;;14.58;100.00;99190.09;4791852;29;20066;-69
2021/12/26 11:38:17;;;;;;;317.88;164.63;;;;;;;14.56;100.00;99197.06;4803160;29;20054;-69
2021/12/26 11:41:53;;;;;;;312.33;163.53;;;;;;;14.68;100.00;99207.00;4793182;29;20419;-70
2021/12/26 11:45:06;;;;;;;311.85;163.38;;;;;;;14.61;100.00;99196.88;4789854;29;20115;-69
2021/12/26 11:48:40;;;;;;;320.95;165.65;;;;;;;14.64;100.00;99197.63;4791180;29;20176;-69
2021/12/26 11:52:08;;;;;;;319.45;169.25;;;;;;;14.50;100.00;99190.38;4790929;29;20066;-69
2021/12/26 11:55:55;;;;;;;319.40;167.35;;;;;;;14.47;100.00;99193.09;4792233;29;20487;-69
2021/12/26 11:59:04;;;;;;;320.05;166.70;;;;;;;14.36;100.00;99194.38;4789978;29;20047;-69
2021/12/26 12:01:53;;;;;;;315.60;168.18;;;;;;;14.38;100.00;99190.81;4795031;29;20133;-69
2021/12/26 12:04:43;;;;;;;323.25;167.85;;;;;;;14.31;100.00;99188.50;4792256;29;20416;-69
2021/12/26 12:07:49;;;;;;;330.90;169.15;;;;;;;14.23;100.00;99193.09;4789427;29;20062;-69
2021/12/26 12:10:45;;;;;;;343.30;171.07;;;;;;;14.23;100.00;99193.97;4769640;30;20115;-69
2021/12/26 12:13:27;;;;;;;320.63;168.43;;;;;;;14.28;100.00;99196.41;4791493;29;20055;-69
2021/12/26 12:16:35;;;;;;;328.95;170.43;;;;;;;14.37;100.00;99215.03;4791210;29;20088;-69
2021/12/26 12:19:17;;;;;;;324.35;166.65;;;;;;;14.40;100.00;99214.09;4790679;29;20055;-69
2021/12/26 12:22:12;;;;;;;348.88;173.23;;;;;;;14.38;100.00;99208.97;4789866;29;20051;-69
2021/12/26 12:25:36;;;;;;;336.98;174.32;;;;;;;14.24;100.00;99215.53;4787192;29;20527;-69
2021/12/26 12:28:25;;;;;;;339.92;178.43;;;;;;;14.26;100.00;99222.38;4796704;29;20047;-71
2021/12/26 12:31:23;;;;;;;346.45;180.02;;;;;;;14.21;100.00;99220.84;4787359;29;20078;-72
2021/12/26 12:34:13;;;;;;;346.70;179.35;;;;;;;14.17;100.00;99230.47;4788733;29;20055;-71
2021/12/26 12:37:02;;;;;;;346.17;179.18;;;;;;;14.21;100.00;99232.03;4787450;29;20051;-71
2021/12/26 12:39:44;;;;;;;342.57;185.03;;;;;;;14.26;100.00;99229.28;4795060;29;20144;-72
2021/12/26 12:42:35;;;;;;;348.77;178.10;;;;;;;14.16;100.00;99234.78;4790632;29;20999;-71
2021/12/26 12:45:23;;;;;;;346.25;180.05;;;;;;;14.25;100.00;99241.41;4799784;29;20061;-71